sensor_id;sensor_type;location;lat;lon;timestamp;P1;durP1;ratioP1;P2;durP2;ratioP2
59062;SDS011;44851;45.648;9.004;2022-12-28T00:02:15;46.73;;;32.27;;
59062;SDS011;44851;45.648;9.004;2022-12-28T00:04:41;53.27;;;31.57;;
59062;SDS011;44851;45.648;9.004;2022-12-28T00:07:07;52.13;;;33.33;;
59062;SDS011;44851;45.648;9.004;2022-12-28T00:09:33;50.73;;;33.07;;
59062;SDS011;44851;45.648;9.004;2022-12-28T00:11:58;50.17;;;33.37;;
59062;SDS011;44851;45.648;9.004;2022-12-28T00:14:24;50.13;;;32.50;;
59062;SDS011;44851;45.648;9.004;2022-12-28T00:16:49;47.00;;;31.37;;
59062;SDS011;44851;45.648;9.004;2022-12-28T00:19:15;45.43;;;32.03;;
59062;SDS011;44851;45.648;9.004;2022-12-28T00:21:43;47.77;;;31.03;;
59062;SDS011;44851;45.648;9.004;2022-12-28T00:24:13;44.80;;;30.73;;
59062;SDS011;44851;45.648;9.004;2022-12-28T00:26:42;46.50;;;32.13;;
59062;SDS011;44851;45.648;9.004;2022-12-28T00:29:08;41.73;;;30.77;;
59062;SDS011;44851;45.648;9.004;2022-12-28T00:31:33;42.90;;;29.37;;
59062;SDS011;44851;45.648;9.004;2022-12-28T00:33:59;40.57;;;29.77;;
59062;SDS011;44851;45.648;9.004;2022-12-28T00:36:24;42.07;;;30.67;;
59062;SDS011;44851;45.648;9.004;2022-12-28T00:38:50;43.93;;;29.87;;
59062;SDS011;44851;45.648;9.004;2022-12-28T00:41:15;41.40;;;29.77;;
59062;SDS011;44851;45.648;9.004;2022-12-28T00:43:41;39.50;;;28.27;;
59062;SDS011;44851;45.648;9.004;2022-12-28T00:46:07;41.67;;;29.00;;
59062;SDS011;44851;45.648;9.004;2022-12-28T00:48:32;42.03;;;29.90;;
59062;SDS011;44851;45.648;9.004;2022-12-28T00:51:08;40.83;;;29.37;;
59062;SDS011;44851;45.648;9.004;2022-12-28T00:53:36;40.97;;;29.40;;
59062;SDS011;44851;45.648;9.004;2022-12-28T00:58:41;40.73;;;28.90;;
59062;SDS011;44851;45.648;9.004;2022-12-28T01:01:12;40.83;;;28.63;;
59062;SDS011;44851;45.648;9.004;2022-12-28T01:03:45;39.77;;;29.13;;
59062;SDS011;44851;45.648;9.004;2022-12-28T01:06:11;40.50;;;28.77;;
59062;SDS011;44851;45.648;9.004;2022-12-28T01:08:38;41.23;;;28.97;;
59062;SDS011;44851;45.648;9.004;2022-12-28T01:11:05;39.80;;;28.30;;
59062;SDS011;44851;45.648;9.004;2022-12-28T01:13:32;38.40;;;27.53;;
59062;SDS011;44851;45.648;9.004;2022-12-28T01:15:57;39.30;;;28.07;;
59062;SDS011;44851;45.648;9.004;2022-12-28T01:18:23;40.13;;;27.63;;
59062;SDS011;44851;45.648;9.004;2022-12-28T01:20:48;35.40;;;26.80;;
59062;SDS011;44851;45.648;9.004;2022-12-28T01:23:14;39.07;;;27.53;;
59062;SDS011;44851;45.648;9.004;2022-12-28T01:25:39;36.07;;;27.27;;
59062;SDS011;44851;45.648;9.004;2022-12-28T01:28:04;39.73;;;28.37;;
59062;SDS011;44851;45.648;9.004;2022-12-28T01:30:30;34.47;;;26.93;;
59062;SDS011;44851;45.648;9.004;2022-12-28T01:32:57;34.77;;;26.20;;
59062;SDS011;44851;45.648;9.004;2022-12-28T01:35:23;34.97;;;26.13;;
59062;SDS011;44851;45.648;9.004;2022-12-28T01:37:49;34.63;;;27.20;;
59062;SDS011;44851;45.648;9.004;2022-12-28T01:40:14;34.17;;;26.17;;
59062;SDS011;44851;45.648;9.004;2022-12-28T01:42:40;38.70;;;27.07;;
59062;SDS011;44851;45.648;9.004;2022-12-28T01:45:12;35.37;;;26.27;;
59062;SDS011;44851;45.648;9.004;2022-12-28T01:47:40;34.30;;;26.23;;
59062;SDS011;44851;45.648;9.004;2022-12-28T01:50:07;37.23;;;25.47;;
59062;SDS011;44851;45.648;9.004;2022-12-28T01:55:09;36.67;;;26.30;;
59062;SDS011;44851;45.648;9.004;2022-12-28T01:57:59;35.33;;;25.03;;
59062;SDS011;44851;45.648;9.004;2022-12-28T02:00:31;34.53;;;25.73;;
59062;SDS011;44851;45.648;9.004;2022-12-28T02:02:57;30.70;;;24.00;;
59062;SDS011;44851;45.648;9.004;2022-12-28T02:05:33;35.37;;;24.43;;
59062;SDS011;44851;45.648;9.004;2022-12-28T02:08:06;34.83;;;25.40;;
59062;SDS011;44851;45.648;9.004;2022-12-28T02:10:35;34.10;;;24.53;;
59062;SDS011;44851;45.648;9.004;2022-12-28T02:13:01;34.73;;;24.37;;
59062;SDS011;44851;45.648;9.004;2022-12-28T02:15:28;32.00;;;24.07;;
59062;SDS011;44851;45.648;9.004;2022-12-28T02:17:53;28.73;;;21.77;;
59062;SDS011;44851;45.648;9.004;2022-12-28T02:20:20;33.53;;;23.73;;
59062;SDS011;44851;45.648;9.004;2022-12-28T02:25:57;29.17;;;22.37;;
59062;SDS011;44851;45.648;9.004;2022-12-28T02:31:40;30.80;;;22.33;;
59062;SDS011;44851;45.648;9.004;2022-12-28T02:37:47;28.37;;;20.90;;
59062;SDS011;44851;45.648;9.004;2022-12-28T02:40:18;26.93;;;20.93;;
59062;SDS011;44851;45.648;9.004;2022-12-28T02:42:51;25.87;;;19.93;;
59062;SDS011;44851;45.648;9.004;2022-12-28T02:45:28;28.57;;;21.20;;
59062;SDS011;44851;45.648;9.004;2022-12-28T02:48:20;25.63;;;20.17;;
59062;SDS011;44851;45.648;9.004;2022-12-28T02:57:00;26.77;;;19.37;;
59062;SDS011;44851;45.648;9.004;2022-12-28T03:08:19;26.47;;;20.17;;
59062;SDS011;44851;45.648;9.004;2022-12-28T03:11:08;28.80;;;20.27;;
59062;SDS011;44851;45.648;9.004;2022-12-28T03:16:20;25.63;;;19.13;;
59062;SDS011;44851;45.648;9.004;2022-12-28T03:18:58;26.47;;;20.20;;
59062;SDS011;44851;45.648;9.004;2022-12-28T03:21:46;25.40;;;19.03;;
59062;SDS011;44851;45.648;9.004;2022-12-28T03:24:31;27.70;;;18.97;;
59062;SDS011;44851;45.648;9.004;2022-12-28T03:27:17;24.43;;;18.00;;
59062;SDS011;44851;45.648;9.004;2022-12-28T03:30:05;26.97;;;18.87;;
59062;SDS011;44851;45.648;9.004;2022-12-28T03:32:52;26.93;;;19.10;;
59062;SDS011;44851;45.648;9.004;2022-12-28T03:35:18;23.83;;;18.03;;
59062;SDS011;44851;45.648;9.004;2022-12-28T03:37:55;25.30;;;19.43;;
59062;SDS011;44851;45.648;9.004;2022-12-28T03:40:38;26.97;;;18.67;;
59062;SDS011;44851;45.648;9.004;2022-12-28T03:43:15;24.87;;;17.53;;
59062;SDS011;44851;45.648;9.004;2022-12-28T03:49:10;24.47;;;18.70;;
59062;SDS011;44851;45.648;9.004;2022-12-28T03:51:36;24.77;;;17.47;;
59062;SDS011;44851;45.648;9.004;2022-12-28T03:54:03;23.93;;;17.90;;
59062;SDS011;44851;45.648;9.004;2022-12-28T03:56:29;21.53;;;15.83;;
59062;SDS011;44851;45.648;9.004;2022-12-28T03:58:55;21.90;;;16.77;;
59062;SDS011;44851;45.648;9.004;2022-12-28T04:01:20;24.97;;;17.93;;
59062;SDS011;44851;45.648;9.004;2022-12-28T04:03:46;25.00;;;17.40;;
59062;SDS011;44851;45.648;9.004;2022-12-28T04:06:12;23.87;;;17.33;;
59062;SDS011;44851;45.648;9.004;2022-12-28T04:08:40;23.53;;;17.30;;
59062;SDS011;44851;45.648;9.004;2022-12-28T04:11:09;22.50;;;17.37;;
59062;SDS011;44851;45.648;9.004;2022-12-28T04:13:35;25.07;;;17.70;;
59062;SDS011;44851;45.648;9.004;2022-12-28T04:16:02;22.10;;;16.67;;
59062;SDS011;44851;45.648;9.004;2022-12-28T04:18:30;22.20;;;16.93;;
59062;SDS011;44851;45.648;9.004;2022-12-28T04:20:56;25.23;;;17.10;;
59062;SDS011;44851;45.648;9.004;2022-12-28T04:23:22;24.40;;;17.13;;
59062;SDS011;44851;45.648;9.004;2022-12-28T04:28:33;21.93;;;16.73;;
59062;SDS011;44851;45.648;9.004;2022-12-28T04:30:59;21.50;;;15.70;;
59062;SDS011;44851;45.648;9.004;2022-12-28T04:33:25;20.90;;;15.90;;
59062;SDS011;44851;45.648;9.004;2022-12-28T04:35:51;22.90;;;16.43;;
59062;SDS011;44851;45.648;9.004;2022-12-28T04:38:17;25.57;;;17.13;;
59062;SDS011;44851;45.648;9.004;2022-12-28T04:40:43;25.20;;;16.47;;
59062;SDS011;44851;45.648;9.004;2022-12-28T04:43:08;22.37;;;16.63;;
59062;SDS011;44851;45.648;9.004;2022-12-28T04:45:34;21.10;;;15.90;;
59062;SDS011;44851;45.648;9.004;2022-12-28T04:48:00;21.83;;;16.30;;
59062;SDS011;44851;45.648;9.004;2022-12-28T04:50:26;21.00;;;15.60;;
59062;SDS011;44851;45.648;9.004;2022-12-28T04:52:52;23.17;;;16.00;;
59062;SDS011;44851;45.648;9.004;2022-12-28T04:55:18;21.33;;;16.83;;
59062;SDS011;44851;45.648;9.004;2022-12-28T04:57:44;22.23;;;16.10;;
59062;SDS011;44851;45.648;9.004;2022-12-28T05:00:10;22.73;;;15.93;;
59062;SDS011;44851;45.648;9.004;2022-12-28T05:02:37;20.67;;;15.57;;
59062;SDS011;44851;45.648;9.004;2022-12-28T05:05:02;20.27;;;14.47;;
59062;SDS011;44851;45.648;9.004;2022-12-28T05:07:28;22.83;;;15.83;;
59062;SDS011;44851;45.648;9.004;2022-12-28T05:09:53;22.33;;;16.90;;
59062;SDS011;44851;45.648;9.004;2022-12-28T05:12:19;23.17;;;15.90;;
59062;SDS011;44851;45.648;9.004;2022-12-28T05:14:45;21.03;;;15.63;;
59062;SDS011;44851;45.648;9.004;2022-12-28T05:17:10;23.53;;;16.27;;
59062;SDS011;44851;45.648;9.004;2022-12-28T05:19:36;20.87;;;16.00;;
59062;SDS011;44851;45.648;9.004;2022-12-28T05:22:01;20.67;;;15.83;;
59062;SDS011;44851;45.648;9.004;2022-12-28T05:24:27;22.70;;;16.57;;
59062;SDS011;44851;45.648;9.004;2022-12-28T05:26:53;23.83;;;16.23;;
59062;SDS011;44851;45.648;9.004;2022-12-28T05:29:18;22.50;;;16.47;;
59062;SDS011;44851;45.648;9.004;2022-12-28T05:31:43;21.03;;;16.40;;
59062;SDS011;44851;45.648;9.004;2022-12-28T05:34:09;19.83;;;15.13;;
59062;SDS011;44851;45.648;9.004;2022-12-28T05:36:34;23.53;;;15.70;;
59062;SDS011;44851;45.648;9.004;2022-12-28T05:39:02;19.33;;;15.80;;
59062;SDS011;44851;45.648;9.004;2022-12-28T05:41:28;21.33;;;15.10;;
59062;SDS011;44851;45.648;9.004;2022-12-28T05:43:58;20.70;;;16.13;;
59062;SDS011;44851;45.648;9.004;2022-12-28T05:46:25;20.50;;;15.97;;
59062;SDS011;44851;45.648;9.004;2022-12-28T05:48:53;21.03;;;15.43;;
59062;SDS011;44851;45.648;9.004;2022-12-28T05:51:20;21.50;;;16.33;;
59062;SDS011;44851;45.648;9.004;2022-12-28T05:53:46;20.00;;;15.63;;
59062;SDS011;44851;45.648;9.004;2022-12-28T05:56:12;19.87;;;15.43;;
59062;SDS011;44851;45.648;9.004;2022-12-28T05:58:45;27.20;;;20.30;;
59062;SDS011;44851;45.648;9.004;2022-12-28T06:01:17;28.47;;;21.03;;
59062;SDS011;44851;45.648;9.004;2022-12-28T06:03:44;23.77;;;18.80;;
59062;SDS011;44851;45.648;9.004;2022-12-28T06:06:11;24.23;;;18.40;;
59062;SDS011;44851;45.648;9.004;2022-12-28T06:08:39;22.53;;;18.13;;
59062;SDS011;44851;45.648;9.004;2022-12-28T06:11:06;22.67;;;16.93;;
59062;SDS011;44851;45.648;9.004;2022-12-28T06:13:33;22.53;;;16.53;;
59062;SDS011;44851;45.648;9.004;2022-12-28T06:18:31;23.40;;;17.10;;
59062;SDS011;44851;45.648;9.004;2022-12-28T06:21:00;24.07;;;17.23;;
59062;SDS011;44851;45.648;9.004;2022-12-28T06:23:27;26.80;;;17.40;;
59062;SDS011;44851;45.648;9.004;2022-12-28T06:25:53;20.23;;;15.93;;
59062;SDS011;44851;45.648;9.004;2022-12-28T06:28:18;20.80;;;16.03;;
59062;SDS011;44851;45.648;9.004;2022-12-28T06:30:43;23.93;;;17.73;;
59062;SDS011;44851;45.648;9.004;2022-12-28T06:33:09;22.73;;;16.70;;
59062;SDS011;44851;45.648;9.004;2022-12-28T06:35:38;21.70;;;15.47;;
59062;SDS011;44851;45.648;9.004;2022-12-28T06:38:04;23.13;;;17.30;;
59062;SDS011;44851;45.648;9.004;2022-12-28T06:40:30;23.23;;;17.57;;
59062;SDS011;44851;45.648;9.004;2022-12-28T06:42:55;22.20;;;16.63;;
59062;SDS011;44851;45.648;9.004;2022-12-28T06:45:21;19.37;;;15.93;;
59062;SDS011;44851;45.648;9.004;2022-12-28T06:47:46;23.17;;;16.17;;
59062;SDS011;44851;45.648;9.004;2022-12-28T06:50:12;21.13;;;16.07;;
59062;SDS011;44851;45.648;9.004;2022-12-28T06:52:37;24.43;;;16.27;;
59062;SDS011;44851;45.648;9.004;2022-12-28T06:55:03;21.87;;;16.40;;
59062;SDS011;44851;45.648;9.004;2022-12-28T06:57:28;21.97;;;17.10;;
59062;SDS011;44851;45.648;9.004;2022-12-28T06:59:53;22.87;;;17.03;;
59062;SDS011;44851;45.648;9.004;2022-12-28T07:02:19;20.27;;;15.60;;
59062;SDS011;44851;45.648;9.004;2022-12-28T07:04:44;23.00;;;17.37;;
59062;SDS011;44851;45.648;9.004;2022-12-28T07:07:10;21.53;;;16.47;;
59062;SDS011;44851;45.648;9.004;2022-12-28T07:09:35;20.03;;;15.77;;
59062;SDS011;44851;45.648;9.004;2022-12-28T07:12:00;20.80;;;16.50;;
59062;SDS011;44851;45.648;9.004;2022-12-28T07:14:26;21.67;;;16.63;;
59062;SDS011;44851;45.648;9.004;2022-12-28T07:16:51;23.63;;;16.50;;
59062;SDS011;44851;45.648;9.004;2022-12-28T07:19:17;20.43;;;15.70;;
59062;SDS011;44851;45.648;9.004;2022-12-28T07:21:42;21.03;;;16.30;;
59062;SDS011;44851;45.648;9.004;2022-12-28T07:24:08;23.97;;;16.03;;
59062;SDS011;44851;45.648;9.004;2022-12-28T07:26:35;19.83;;;14.63;;
59062;SDS011;44851;45.648;9.004;2022-12-28T07:29:03;21.33;;;16.17;;
59062;SDS011;44851;45.648;9.004;2022-12-28T07:31:31;22.10;;;15.80;;
59062;SDS011;44851;45.648;9.004;2022-12-28T07:33:59;22.53;;;15.70;;
59062;SDS011;44851;45.648;9.004;2022-12-28T07:36:26;22.10;;;17.23;;
59062;SDS011;44851;45.648;9.004;2022-12-28T07:38:53;22.40;;;16.87;;
59062;SDS011;44851;45.648;9.004;2022-12-28T07:41:22;21.37;;;16.67;;
59062;SDS011;44851;45.648;9.004;2022-12-28T07:43:52;21.23;;;16.40;;
59062;SDS011;44851;45.648;9.004;2022-12-28T07:46:19;21.23;;;16.13;;
59062;SDS011;44851;45.648;9.004;2022-12-28T07:48:47;23.67;;;16.90;;
59062;SDS011;44851;45.648;9.004;2022-12-28T07:51:20;20.77;;;16.20;;
59062;SDS011;44851;45.648;9.004;2022-12-28T07:53:51;24.03;;;16.03;;
59062;SDS011;44851;45.648;9.004;2022-12-28T07:56:18;19.77;;;16.37;;
59062;SDS011;44851;45.648;9.004;2022-12-28T07:58:48;21.23;;;16.23;;
59062;SDS011;44851;45.648;9.004;2022-12-28T08:01:16;22.67;;;17.90;;
59062;SDS011;44851;45.648;9.004;2022-12-28T08:03:42;24.03;;;17.40;;
59062;SDS011;44851;45.648;9.004;2022-12-28T08:06:09;21.90;;;16.37;;
59062;SDS011;44851;45.648;9.004;2022-12-28T08:08:48;24.90;;;16.70;;
59062;SDS011;44851;45.648;9.004;2022-12-28T08:11:22;23.17;;;16.13;;
59062;SDS011;44851;45.648;9.004;2022-12-28T08:13:50;24.40;;;17.50;;
59062;SDS011;44851;45.648;9.004;2022-12-28T08:16:17;22.67;;;16.90;;
59062;SDS011;44851;45.648;9.004;2022-12-28T08:18:44;21.30;;;16.33;;
59062;SDS011;44851;45.648;9.004;2022-12-28T08:21:11;22.20;;;16.70;;
59062;SDS011;44851;45.648;9.004;2022-12-28T08:23:43;24.17;;;17.57;;
59062;SDS011;44851;45.648;9.004;2022-12-28T08:26:29;21.57;;;16.90;;
59062;SDS011;44851;45.648;9.004;2022-12-28T08:28:58;22.37;;;16.43;;
59062;SDS011;44851;45.648;9.004;2022-12-28T08:31:28;23.43;;;17.83;;
59062;SDS011;44851;45.648;9.004;2022-12-28T08:33:56;25.40;;;16.90;;
59062;SDS011;44851;45.648;9.004;2022-12-28T08:36:23;23.70;;;17.87;;
59062;SDS011;44851;45.648;9.004;2022-12-28T08:38:49;24.87;;;18.47;;
59062;SDS011;44851;45.648;9.004;2022-12-28T08:41:15;24.27;;;18.63;;
59062;SDS011;44851;45.648;9.004;2022-12-28T08:43:43;23.13;;;17.13;;
59062;SDS011;44851;45.648;9.004;2022-12-28T08:48:36;26.30;;;18.57;;
59062;SDS011;44851;45.648;9.004;2022-12-28T08:51:04;26.13;;;18.30;;
59062;SDS011;44851;45.648;9.004;2022-12-28T08:53:30;24.70;;;18.17;;
59062;SDS011;44851;45.648;9.004;2022-12-28T08:56:07;23.93;;;18.07;;
59062;SDS011;44851;45.648;9.004;2022-12-28T08:58:40;25.33;;;18.57;;
59062;SDS011;44851;45.648;9.004;2022-12-28T09:01:08;25.90;;;18.70;;
59062;SDS011;44851;45.648;9.004;2022-12-28T09:03:42;25.87;;;19.67;;
59062;SDS011;44851;45.648;9.004;2022-12-28T09:06:10;28.10;;;19.60;;
59062;SDS011;44851;45.648;9.004;2022-12-28T09:08:38;26.40;;;19.47;;
59062;SDS011;44851;45.648;9.004;2022-12-28T09:11:07;24.33;;;18.27;;
59062;SDS011;44851;45.648;9.004;2022-12-28T09:13:35;30.27;;;20.53;;
59062;SDS011;44851;45.648;9.004;2022-12-28T09:16:02;26.80;;;18.57;;
59062;SDS011;44851;45.648;9.004;2022-12-28T09:18:35;27.30;;;19.17;;
59062;SDS011;44851;45.648;9.004;2022-12-28T09:21:05;26.47;;;19.53;;
59062;SDS011;44851;45.648;9.004;2022-12-28T09:23:35;24.90;;;18.03;;
59062;SDS011;44851;45.648;9.004;2022-12-28T09:28:37;25.37;;;18.10;;
59062;SDS011;44851;45.648;9.004;2022-12-28T09:31:06;23.30;;;17.70;;
59062;SDS011;44851;45.648;9.004;2022-12-28T09:33:34;23.73;;;18.53;;
59062;SDS011;44851;45.648;9.004;2022-12-28T09:36:18;22.73;;;17.50;;
59062;SDS011;44851;45.648;9.004;2022-12-28T09:38:47;23.00;;;17.70;;
59062;SDS011;44851;45.648;9.004;2022-12-28T09:47:17;25.83;;;18.07;;
59062;SDS011;44851;45.648;9.004;2022-12-28T09:55:31;24.03;;;18.03;;
59062;SDS011;44851;45.648;9.004;2022-12-28T09:57:59;23.77;;;17.67;;
59062;SDS011;44851;45.648;9.004;2022-12-28T10:00:28;24.20;;;17.90;;
59062;SDS011;44851;45.648;9.004;2022-12-28T10:03:09;22.57;;;17.83;;
59062;SDS011;44851;45.648;9.004;2022-12-28T10:05:39;24.97;;;17.83;;
59062;SDS011;44851;45.648;9.004;2022-12-28T10:08:05;23.60;;;17.43;;
59062;SDS011;44851;45.648;9.004;2022-12-28T10:10:30;23.03;;;18.60;;
59062;SDS011;44851;45.648;9.004;2022-12-28T10:12:56;23.53;;;17.90;;
59062;SDS011;44851;45.648;9.004;2022-12-28T10:15:26;24.50;;;19.77;;
59062;SDS011;44851;45.648;9.004;2022-12-28T10:17:52;28.20;;;22.10;;
59062;SDS011;44851;45.648;9.004;2022-12-28T10:20:19;38.03;;;31.27;;
59062;SDS011;44851;45.648;9.004;2022-12-28T10:22:48;42.47;;;36.40;;
59062;SDS011;44851;45.648;9.004;2022-12-28T10:25:19;48.03;;;40.83;;
59062;SDS011;44851;45.648;9.004;2022-12-28T10:27:47;49.00;;;41.30;;
59062;SDS011;44851;45.648;9.004;2022-12-28T10:30:17;55.13;;;47.87;;
59062;SDS011;44851;45.648;9.004;2022-12-28T10:32:51;57.00;;;49.27;;
59062;SDS011;44851;45.648;9.004;2022-12-28T10:35:23;41.23;;;35.60;;
59062;SDS011;44851;45.648;9.004;2022-12-28T10:37:58;35.60;;;29.27;;
59062;SDS011;44851;45.648;9.004;2022-12-28T10:40:30;31.30;;;24.33;;
59062;SDS011;44851;45.648;9.004;2022-12-28T10:43:00;31.57;;;24.50;;
59062;SDS011;44851;45.648;9.004;2022-12-28T10:45:32;33.90;;;25.17;;
59062;SDS011;44851;45.648;9.004;2022-12-28T10:48:00;33.77;;;23.07;;
59062;SDS011;44851;45.648;9.004;2022-12-28T10:50:39;28.93;;;23.13;;
59062;SDS011;44851;45.648;9.004;2022-12-28T10:53:07;29.63;;;22.43;;
59062;SDS011;44851;45.648;9.004;2022-12-28T10:58:30;29.10;;;21.47;;
59062;SDS011;44851;45.648;9.004;2022-12-28T11:00:58;29.83;;;22.30;;
59062;SDS011;44851;45.648;9.004;2022-12-28T11:03:27;32.07;;;23.70;;
59062;SDS011;44851;45.648;9.004;2022-12-28T11:08:41;34.93;;;25.20;;
59062;SDS011;44851;45.648;9.004;2022-12-28T11:11:15;32.37;;;24.00;;
59062;SDS011;44851;45.648;9.004;2022-12-28T11:13:49;32.43;;;24.20;;
59062;SDS011;44851;45.648;9.004;2022-12-28T11:16:18;35.93;;;26.07;;
59062;SDS011;44851;45.648;9.004;2022-12-28T11:18:45;36.43;;;25.97;;
59062;SDS011;44851;45.648;9.004;2022-12-28T11:21:12;35.40;;;26.77;;
59062;SDS011;44851;45.648;9.004;2022-12-28T11:23:49;34.53;;;24.93;;
59062;SDS011;44851;45.648;9.004;2022-12-28T11:26:16;34.30;;;24.50;;
59062;SDS011;44851;45.648;9.004;2022-12-28T11:28:42;36.73;;;26.07;;
59062;SDS011;44851;45.648;9.004;2022-12-28T11:31:13;36.13;;;24.27;;
59062;SDS011;44851;45.648;9.004;2022-12-28T11:33:47;38.17;;;25.60;;
59062;SDS011;44851;45.648;9.004;2022-12-28T11:36:16;33.53;;;24.57;;
59062;SDS011;44851;45.648;9.004;2022-12-28T11:38:45;34.17;;;25.33;;
59062;SDS011;44851;45.648;9.004;2022-12-28T11:43:53;31.23;;;23.27;;
59062;SDS011;44851;45.648;9.004;2022-12-28T11:48:46;31.83;;;24.53;;
59062;SDS011;44851;45.648;9.004;2022-12-28T11:51:22;34.13;;;23.97;;
59062;SDS011;44851;45.648;9.004;2022-12-28T11:59:19;36.73;;;25.10;;
59062;SDS011;44851;45.648;9.004;2022-12-28T12:01:47;37.07;;;24.03;;
59062;SDS011;44851;45.648;9.004;2022-12-28T12:04:19;34.07;;;23.83;;
59062;SDS011;44851;45.648;9.004;2022-12-28T12:12:12;36.57;;;23.93;;
59062;SDS011;44851;45.648;9.004;2022-12-28T12:15:00;35.73;;;24.83;;
59062;SDS011;44851;45.648;9.004;2022-12-28T12:17:48;35.27;;;24.00;;
59062;SDS011;44851;45.648;9.004;2022-12-28T12:20:20;35.53;;;23.90;;
59062;SDS011;44851;45.648;9.004;2022-12-28T12:23:01;35.93;;;24.13;;
59062;SDS011;44851;45.648;9.004;2022-12-28T12:25:41;33.60;;;23.90;;
59062;SDS011;44851;45.648;9.004;2022-12-28T12:30:57;35.27;;;24.17;;
59062;SDS011;44851;45.648;9.004;2022-12-28T12:33:25;34.20;;;23.93;;
59062;SDS011;44851;45.648;9.004;2022-12-28T12:41:41;36.33;;;24.37;;
59062;SDS011;44851;45.648;9.004;2022-12-28T12:55:48;34.60;;;22.97;;
59062;SDS011;44851;45.648;9.004;2022-12-28T13:06:02;34.63;;;23.13;;
59062;SDS011;44851;45.648;9.004;2022-12-28T13:08:40;34.00;;;23.03;;
59062;SDS011;44851;45.648;9.004;2022-12-28T13:11:09;35.20;;;22.80;;
59062;SDS011;44851;45.648;9.004;2022-12-28T13:13:37;37.43;;;23.03;;
59062;SDS011;44851;45.648;9.004;2022-12-28T13:16:06;36.23;;;23.60;;
59062;SDS011;44851;45.648;9.004;2022-12-28T13:18:38;37.27;;;23.83;;
59062;SDS011;44851;45.648;9.004;2022-12-28T13:21:04;32.47;;;21.83;;
59062;SDS011;44851;45.648;9.004;2022-12-28T13:23:31;36.90;;;22.07;;
59062;SDS011;44851;45.648;9.004;2022-12-28T13:26:08;37.50;;;23.27;;
59062;SDS011;44851;45.648;9.004;2022-12-28T13:28:35;35.13;;;22.40;;
59062;SDS011;44851;45.648;9.004;2022-12-28T13:33:32;35.67;;;22.17;;
59062;SDS011;44851;45.648;9.004;2022-12-28T13:38:40;39.37;;;25.03;;
59062;SDS011;44851;45.648;9.004;2022-12-28T13:41:06;41.23;;;24.63;;
59062;SDS011;44851;45.648;9.004;2022-12-28T13:46:29;38.80;;;24.83;;
59062;SDS011;44851;45.648;9.004;2022-12-28T13:48:55;33.63;;;23.80;;
59062;SDS011;44851;45.648;9.004;2022-12-28T13:51:23;38.57;;;25.67;;
59062;SDS011;44851;45.648;9.004;2022-12-28T13:53:50;43.10;;;26.13;;
59062;SDS011;44851;45.648;9.004;2022-12-28T13:56:19;41.47;;;26.13;;
59062;SDS011;44851;45.648;9.004;2022-12-28T13:58:51;37.70;;;24.70;;
59062;SDS011;44851;45.648;9.004;2022-12-28T14:01:21;41.67;;;24.77;;
59062;SDS011;44851;45.648;9.004;2022-12-28T14:03:50;41.07;;;26.43;;
59062;SDS011;44851;45.648;9.004;2022-12-28T14:06:23;42.47;;;26.20;;
59062;SDS011;44851;45.648;9.004;2022-12-28T14:08:49;42.17;;;26.07;;
59062;SDS011;44851;45.648;9.004;2022-12-28T14:11:14;39.80;;;25.80;;
59062;SDS011;44851;45.648;9.004;2022-12-28T14:13:41;42.63;;;26.43;;
59062;SDS011;44851;45.648;9.004;2022-12-28T14:16:07;39.57;;;27.00;;
59062;SDS011;44851;45.648;9.004;2022-12-28T14:18:33;47.57;;;29.67;;
59062;SDS011;44851;45.648;9.004;2022-12-28T14:21:00;43.70;;;28.00;;
59062;SDS011;44851;45.648;9.004;2022-12-28T14:23:30;42.90;;;28.10;;
59062;SDS011;44851;45.648;9.004;2022-12-28T14:25:58;44.53;;;29.40;;
59062;SDS011;44851;45.648;9.004;2022-12-28T14:31:07;42.67;;;28.83;;
59062;SDS011;44851;45.648;9.004;2022-12-28T14:33:47;47.47;;;29.20;;
59062;SDS011;44851;45.648;9.004;2022-12-28T14:36:23;45.73;;;29.43;;
59062;SDS011;44851;45.648;9.004;2022-12-28T14:38:53;55.60;;;32.77;;
59062;SDS011;44851;45.648;9.004;2022-12-28T14:41:43;47.30;;;30.73;;
59062;SDS011;44851;45.648;9.004;2022-12-28T14:44:14;48.03;;;30.67;;
59062;SDS011;44851;45.648;9.004;2022-12-28T14:46:46;49.03;;;31.50;;
59062;SDS011;44851;45.648;9.004;2022-12-28T14:51:52;51.67;;;31.53;;
59062;SDS011;44851;45.648;9.004;2022-12-28T14:54:24;51.47;;;31.17;;
59062;SDS011;44851;45.648;9.004;2022-12-28T14:57:01;52.43;;;33.70;;
59062;SDS011;44851;45.648;9.004;2022-12-28T14:59:38;52.60;;;33.27;;
59062;SDS011;44851;45.648;9.004;2022-12-28T15:02:22;51.90;;;32.90;;
59062;SDS011;44851;45.648;9.004;2022-12-28T15:04:58;55.43;;;33.37;;
59062;SDS011;44851;45.648;9.004;2022-12-28T15:07:24;52.63;;;32.90;;
59062;SDS011;44851;45.648;9.004;2022-12-28T15:09:50;56.33;;;34.77;;
59062;SDS011;44851;45.648;9.004;2022-12-28T15:12:16;54.33;;;34.17;;
59062;SDS011;44851;45.648;9.004;2022-12-28T15:14:47;59.43;;;34.87;;
59062;SDS011;44851;45.648;9.004;2022-12-28T15:17:13;54.00;;;34.40;;
59062;SDS011;44851;45.648;9.004;2022-12-28T15:19:40;56.97;;;35.17;;
59062;SDS011;44851;45.648;9.004;2022-12-28T15:22:06;59.87;;;35.67;;
59062;SDS011;44851;45.648;9.004;2022-12-28T15:24:32;57.30;;;35.13;;
59062;SDS011;44851;45.648;9.004;2022-12-28T15:26:58;61.80;;;36.17;;
59062;SDS011;44851;45.648;9.004;2022-12-28T15:29:24;59.27;;;36.13;;
59062;SDS011;44851;45.648;9.004;2022-12-28T15:31:49;58.87;;;37.73;;
59062;SDS011;44851;45.648;9.004;2022-12-28T15:34:15;58.67;;;39.30;;
59062;SDS011;44851;45.648;9.004;2022-12-28T15:36:40;62.60;;;40.13;;
59062;SDS011;44851;45.648;9.004;2022-12-28T15:39:13;74.67;;;45.40;;
59062;SDS011;44851;45.648;9.004;2022-12-28T15:41:39;67.83;;;40.77;;
59062;SDS011;44851;45.648;9.004;2022-12-28T15:44:17;67.33;;;42.30;;
59062;SDS011;44851;45.648;9.004;2022-12-28T15:46:44;64.47;;;41.13;;
59062;SDS011;44851;45.648;9.004;2022-12-28T15:49:12;75.70;;;43.87;;
59062;SDS011;44851;45.648;9.004;2022-12-28T15:51:38;71.77;;;45.50;;
59062;SDS011;44851;45.648;9.004;2022-12-28T15:54:04;76.43;;;48.33;;
59062;SDS011;44851;45.648;9.004;2022-12-28T15:56:31;76.13;;;46.83;;
59062;SDS011;44851;45.648;9.004;2022-12-28T15:58:58;70.03;;;43.73;;
59062;SDS011;44851;45.648;9.004;2022-12-28T16:01:26;71.23;;;44.20;;
59062;SDS011;44851;45.648;9.004;2022-12-28T16:03:53;72.47;;;44.97;;
59062;SDS011;44851;45.648;9.004;2022-12-28T16:06:21;71.73;;;45.47;;
59062;SDS011;44851;45.648;9.004;2022-12-28T16:08:47;67.97;;;43.50;;
59062;SDS011;44851;45.648;9.004;2022-12-28T16:11:14;71.93;;;44.80;;
59062;SDS011;44851;45.648;9.004;2022-12-28T16:13:41;71.10;;;45.43;;
59062;SDS011;44851;45.648;9.004;2022-12-28T16:16:11;72.20;;;45.80;;
59062;SDS011;44851;45.648;9.004;2022-12-28T16:18:37;70.00;;;44.93;;
59062;SDS011;44851;45.648;9.004;2022-12-28T16:21:04;77.13;;;47.63;;
59062;SDS011;44851;45.648;9.004;2022-12-28T16:23:32;74.07;;;45.17;;
59062;SDS011;44851;45.648;9.004;2022-12-28T16:26:00;71.30;;;44.93;;
59062;SDS011;44851;45.648;9.004;2022-12-28T16:28:26;72.10;;;46.73;;
59062;SDS011;44851;45.648;9.004;2022-12-28T16:30:53;78.17;;;46.97;;
59062;SDS011;44851;45.648;9.004;2022-12-28T16:36:41;76.67;;;46.93;;